Terminal Aerodrome Forecast
Issued by NWS

Home | Current Version | Previous Version | Text Only | Print | Product List | Glossary On
Versions: 1 2 3 4 5 6 7 8 9 10 11 12 13 14 15 16 17 18
000
FTUS43 KJKL 210520
TAFSME
TAF
KSME 210520Z 2106/2206 00000KT P6SM FEW250
     FM211700 18006KT P6SM BKN120
     FM220000 13003KT P6SM VCSH OVC035=

USA.gov is the U.S. government's official web portal to all federal, state and local government web resources and services.